sensor_id;sensor_type;location;lat;lon;timestamp;temperature;humidity
75022;SHT31;63583;49.976;20.182;2023-02-13T00:01:15;2.77;83.93
75022;SHT31;63583;49.976;20.182;2023-02-13T00:03:40;2.66;84.38
75022;SHT31;63583;49.976;20.182;2023-02-13T00:06:06;2.75;84.20
75022;SHT31;63583;49.976;20.182;2023-02-13T00:08:32;2.80;84.05
75022;SHT31;63583;49.976;20.182;2023-02-13T00:10:58;2.77;84.22
75022;SHT31;63583;49.976;20.182;2023-02-13T00:13:24;2.86;83.84
75022;SHT31;63583;49.976;20.182;2023-02-13T00:16:01;2.94;83.78
75022;SHT31;63583;49.976;20.182;2023-02-13T00:18:28;2.86;83.97
75022;SHT31;63583;49.976;20.182;2023-02-13T00:21:02;2.85;83.98
75022;SHT31;63583;49.976;20.182;2023-02-13T00:23:29;2.82;84.26
75022;SHT31;63583;49.976;20.182;2023-02-13T00:25:56;2.73;84.70
75022;SHT31;63583;49.976;20.182;2023-02-13T00:28:22;2.72;84.87
75022;SHT31;63583;49.976;20.182;2023-02-13T00:30:48;2.76;85.03
75022;SHT31;63583;49.976;20.182;2023-02-13T00:33:14;2.77;84.92
75022;SHT31;63583;49.976;20.182;2023-02-13T00:35:40;2.77;85.08
75022;SHT31;63583;49.976;20.182;2023-02-13T00:38:05;2.76;85.19
75022;SHT31;63583;49.976;20.182;2023-02-13T00:40:31;2.73;85.35
75022;SHT31;63583;49.976;20.182;2023-02-13T00:42:57;2.72;85.34
75022;SHT31;63583;49.976;20.182;2023-02-13T00:45:22;2.75;85.39
75022;SHT31;63583;49.976;20.182;2023-02-13T00:47:48;2.83;85.06
75022;SHT31;63583;49.976;20.182;2023-02-13T00:50:14;2.93;84.61
75022;SHT31;63583;49.976;20.182;2023-02-13T00:52:40;2.87;84.64
75022;SHT31;63583;49.976;20.182;2023-02-13T00:55:06;2.83;84.99
75022;SHT31;63583;49.976;20.182;2023-02-13T00:57:31;2.96;84.69
75022;SHT31;63583;49.976;20.182;2023-02-13T00:59:57;2.87;84.81
75022;SHT31;63583;49.976;20.182;2023-02-13T01:02:23;2.80;85.27
75022;SHT31;63583;49.976;20.182;2023-02-13T01:04:49;2.89;85.18
75022;SHT31;63583;49.976;20.182;2023-02-13T01:07:15;2.86;85.18
75022;SHT31;63583;49.976;20.182;2023-02-13T01:09:41;2.73;85.63
75022;SHT31;63583;49.976;20.182;2023-02-13T01:12:06;2.69;86.22
75022;SHT31;63583;49.976;20.182;2023-02-13T01:14:32;2.83;86.16
75022;SHT31;63583;49.976;20.182;2023-02-13T01:16:58;2.82;86.67
75022;SHT31;63583;49.976;20.182;2023-02-13T01:19:24;2.90;86.84
75022;SHT31;63583;49.976;20.182;2023-02-13T01:21:49;3.04;86.47
75022;SHT31;63583;49.976;20.182;2023-02-13T01:24:15;3.15;86.13
75022;SHT31;63583;49.976;20.182;2023-02-13T01:26:41;3.17;86.43
75022;SHT31;63583;49.976;20.182;2023-02-13T01:29:07;3.14;86.57
75022;SHT31;63583;49.976;20.182;2023-02-13T01:31:33;3.24;86.40
75022;SHT31;63583;49.976;20.182;2023-02-13T01:33:59;3.23;86.46
75022;SHT31;63583;49.976;20.182;2023-02-13T01:36:25;3.17;86.53
75022;SHT31;63583;49.976;20.182;2023-02-13T01:38:53;3.14;86.64
75022;SHT31;63583;49.976;20.182;2023-02-13T01:41:19;3.18;86.51
75022;SHT31;63583;49.976;20.182;2023-02-13T01:43:52;3.21;86.65
75022;SHT31;63583;49.976;20.182;2023-02-13T01:46:23;3.23;86.56
75022;SHT31;63583;49.976;20.182;2023-02-13T01:48:51;3.21;86.46
75022;SHT31;63583;49.976;20.182;2023-02-13T01:51:20;3.25;86.55
75022;SHT31;63583;49.976;20.182;2023-02-13T01:53:52;3.25;86.61
75022;SHT31;63583;49.976;20.182;2023-02-13T01:56:24;3.31;86.08
75022;SHT31;63583;49.976;20.182;2023-02-13T01:58:53;3.31;86.17
75022;SHT31;63583;49.976;20.182;2023-02-13T02:01:21;3.30;86.54
75022;SHT31;63583;49.976;20.182;2023-02-13T02:06:35;3.41;85.69
75022;SHT31;63583;49.976;20.182;2023-02-13T02:09:10;3.62;84.79
75022;SHT31;63583;49.976;20.182;2023-02-13T02:11:47;3.61;84.61
75022;SHT31;63583;49.976;20.182;2023-02-13T02:14:16;3.61;84.70
75022;SHT31;63583;49.976;20.182;2023-02-13T02:16:41;3.72;84.17
75022;SHT31;63583;49.976;20.182;2023-02-13T02:19:14;3.65;83.95
75022;SHT31;63583;49.976;20.182;2023-02-13T02:21:52;3.66;83.93
75022;SHT31;63583;49.976;20.182;2023-02-13T02:25:09;3.68;84.04
75022;SHT31;63583;49.976;20.182;2023-02-13T02:44:58;3.89;82.99
75022;SHT31;63583;49.976;20.182;2023-02-13T02:48:11;4.01;82.60
75022;SHT31;63583;49.976;20.182;2023-02-13T02:51:11;3.90;82.66
75022;SHT31;63583;49.976;20.182;2023-02-13T02:53:46;3.86;82.77
75022;SHT31;63583;49.976;20.182;2023-02-13T02:56:25;3.85;82.84
75022;SHT31;63583;49.976;20.182;2023-02-13T02:59:04;3.79;83.23
75022;SHT31;63583;49.976;20.182;2023-02-13T03:01:52;3.92;82.20
75022;SHT31;63583;49.976;20.182;2023-02-13T03:04:50;3.45;81.55
75022;SHT31;63583;49.976;20.182;2023-02-13T03:07:36;3.18;82.56
75022;SHT31;63583;49.976;20.182;2023-02-13T03:10:09;3.13;82.68
75022;SHT31;63583;49.976;20.182;2023-02-13T03:12:56;2.94;83.84
75022;SHT31;63583;49.976;20.182;2023-02-13T03:15:44;2.79;84.40
75022;SHT31;63583;49.976;20.182;2023-02-13T03:18:30;2.80;84.65
75022;SHT31;63583;49.976;20.182;2023-02-13T03:24:29;2.34;85.72
75022;SHT31;63583;49.976;20.182;2023-02-13T03:27:13;2.44;85.46
75022;SHT31;63583;49.976;20.182;2023-02-13T03:29:50;2.35;86.02
75022;SHT31;63583;49.976;20.182;2023-02-13T03:32:49;2.34;86.30
75022;SHT31;63583;49.976;20.182;2023-02-13T03:38:13;2.28;87.04
75022;SHT31;63583;49.976;20.182;2023-02-13T03:41:04;2.32;86.44
75022;SHT31;63583;49.976;20.182;2023-02-13T03:46:59;2.21;87.32
75022;SHT31;63583;49.976;20.182;2023-02-13T03:49:28;2.17;87.92
75022;SHT31;63583;49.976;20.182;2023-02-13T03:54:51;2.25;88.48
75022;SHT31;63583;49.976;20.182;2023-02-13T03:57:39;2.48;87.66
75022;SHT31;63583;49.976;20.182;2023-02-13T04:00:28;2.42;88.08
75022;SHT31;63583;49.976;20.182;2023-02-13T04:03:07;2.60;87.93
75022;SHT31;63583;49.976;20.182;2023-02-13T04:05:39;2.76;87.58
75022;SHT31;63583;49.976;20.182;2023-02-13T04:08:05;2.83;87.02
75022;SHT31;63583;49.976;20.182;2023-02-13T04:10:33;2.82;87.02
75022;SHT31;63583;49.976;20.182;2023-02-13T04:13:11;2.76;87.61
75022;SHT31;63583;49.976;20.182;2023-02-13T04:16:01;2.73;88.01
75022;SHT31;63583;49.976;20.182;2023-02-13T04:18:29;2.79;87.99
75022;SHT31;63583;49.976;20.182;2023-02-13T04:20:59;2.82;88.40
75022;SHT31;63583;49.976;20.182;2023-02-13T04:23:25;2.83;88.74
75022;SHT31;63583;49.976;20.182;2023-02-13T04:25:53;2.89;89.08
75022;SHT31;63583;49.976;20.182;2023-02-13T04:28:19;3.01;89.22
75022;SHT31;63583;49.976;20.182;2023-02-13T04:30:45;3.07;89.17
75022;SHT31;63583;49.976;20.182;2023-02-13T04:33:10;3.03;89.65
75022;SHT31;63583;49.976;20.182;2023-02-13T04:35:36;3.17;89.30
75022;SHT31;63583;49.976;20.182;2023-02-13T04:38:02;3.13;89.82
75022;SHT31;63583;49.976;20.182;2023-02-13T04:40:28;2.99;90.62
75022;SHT31;63583;49.976;20.182;2023-02-13T04:42:54;2.97;91.82
75022;SHT31;63583;49.976;20.182;2023-02-13T04:45:19;3.03;91.83
75022;SHT31;63583;49.976;20.182;2023-02-13T04:47:55;3.01;92.42
75022;SHT31;63583;49.976;20.182;2023-02-13T04:50:22;2.97;92.92
75022;SHT31;63583;49.976;20.182;2023-02-13T04:52:52;2.86;93.77
75022;SHT31;63583;49.976;20.182;2023-02-13T04:55:19;2.97;93.82
75022;SHT31;63583;49.976;20.182;2023-02-13T04:57:44;2.96;94.15
75022;SHT31;63583;49.976;20.182;2023-02-13T05:00:11;2.96;94.68
75022;SHT31;63583;49.976;20.182;2023-02-13T05:02:36;3.04;95.03
75022;SHT31;63583;49.976;20.182;2023-02-13T05:05:02;2.94;95.31
75022;SHT31;63583;49.976;20.182;2023-02-13T05:07:28;2.97;95.79
75022;SHT31;63583;49.976;20.182;2023-02-13T05:09:54;2.94;96.10
75022;SHT31;63583;49.976;20.182;2023-02-13T05:12:19;3.03;96.10
75022;SHT31;63583;49.976;20.182;2023-02-13T05:14:45;3.06;96.03
75022;SHT31;63583;49.976;20.182;2023-02-13T05:17:11;3.03;95.93
75022;SHT31;63583;49.976;20.182;2023-02-13T05:19:36;2.96;95.91
75022;SHT31;63583;49.976;20.182;2023-02-13T05:22:02;2.89;95.99
75022;SHT31;63583;49.976;20.182;2023-02-13T05:24:46;2.96;95.92
75022;SHT31;63583;49.976;20.182;2023-02-13T05:27:12;2.94;95.75
75022;SHT31;63583;49.976;20.182;2023-02-13T05:29:38;2.93;95.70
75022;SHT31;63583;49.976;20.182;2023-02-13T05:32:03;2.97;95.72
75022;SHT31;63583;49.976;20.182;2023-02-13T05:34:29;2.99;95.81
75022;SHT31;63583;49.976;20.182;2023-02-13T05:36:55;2.89;95.79
75022;SHT31;63583;49.976;20.182;2023-02-13T05:39:21;3.00;95.86
75022;SHT31;63583;49.976;20.182;2023-02-13T05:41:47;2.92;95.87
75022;SHT31;63583;49.976;20.182;2023-02-13T05:44:14;2.96;95.82
75022;SHT31;63583;49.976;20.182;2023-02-13T05:46:40;3.00;95.60
75022;SHT31;63583;49.976;20.182;2023-02-13T05:49:08;3.00;95.64
75022;SHT31;63583;49.976;20.182;2023-02-13T05:51:34;2.94;95.72
75022;SHT31;63583;49.976;20.182;2023-02-13T05:54:00;2.92;96.00
75022;SHT31;63583;49.976;20.182;2023-02-13T05:56:25;2.85;96.34
75022;SHT31;63583;49.976;20.182;2023-02-13T05:58:52;2.90;96.41
75022;SHT31;63583;49.976;20.182;2023-02-13T06:01:19;2.94;96.21
75022;SHT31;63583;49.976;20.182;2023-02-13T06:03:45;2.92;96.29
75022;SHT31;63583;49.976;20.182;2023-02-13T06:06:11;2.80;96.49
75022;SHT31;63583;49.976;20.182;2023-02-13T06:08:36;2.90;96.41
75022;SHT31;63583;49.976;20.182;2023-02-13T06:11:02;2.80;96.70
75022;SHT31;63583;49.976;20.182;2023-02-13T06:13:28;2.87;96.52
75022;SHT31;63583;49.976;20.182;2023-02-13T06:15:54;2.89;96.58
75022;SHT31;63583;49.976;20.182;2023-02-13T06:18:20;2.97;96.72
75022;SHT31;63583;49.976;20.182;2023-02-13T06:20:45;2.85;96.95
75022;SHT31;63583;49.976;20.182;2023-02-13T06:23:11;2.87;97.08
75022;SHT31;63583;49.976;20.182;2023-02-13T06:25:37;2.89;97.12
75022;SHT31;63583;49.976;20.182;2023-02-13T06:28:03;2.93;97.10
75022;SHT31;63583;49.976;20.182;2023-02-13T06:30:29;2.93;97.01
75022;SHT31;63583;49.976;20.182;2023-02-13T06:32:56;2.87;97.18
75022;SHT31;63583;49.976;20.182;2023-02-13T06:35:21;2.92;97.08
75022;SHT31;63583;49.976;20.182;2023-02-13T06:37:47;2.97;97.11
75022;SHT31;63583;49.976;20.182;2023-02-13T06:40:14;2.92;97.19
75022;SHT31;63583;49.976;20.182;2023-02-13T06:42:41;2.87;97.34
75022;SHT31;63583;49.976;20.182;2023-02-13T06:45:08;3.07;97.20
75022;SHT31;63583;49.976;20.182;2023-02-13T06:47:33;3.01;97.02
75022;SHT31;63583;49.976;20.182;2023-02-13T06:49:59;3.07;97.26
75022;SHT31;63583;49.976;20.182;2023-02-13T06:52:26;3.17;96.74
75022;SHT31;63583;49.976;20.182;2023-02-13T06:54:52;3.15;96.50
75022;SHT31;63583;49.976;20.182;2023-02-13T06:57:17;3.23;96.31
75022;SHT31;63583;49.976;20.182;2023-02-13T06:59:43;3.17;96.29
75022;SHT31;63583;49.976;20.182;2023-02-13T07:02:12;3.18;96.60
75022;SHT31;63583;49.976;20.182;2023-02-13T07:04:38;3.21;96.71
75022;SHT31;63583;49.976;20.182;2023-02-13T07:07:04;3.15;96.63
75022;SHT31;63583;49.976;20.182;2023-02-13T07:09:30;3.08;96.73
75022;SHT31;63583;49.976;20.182;2023-02-13T07:11:56;3.23;96.88
75022;SHT31;63583;49.976;20.182;2023-02-13T07:14:22;3.17;96.48
75022;SHT31;63583;49.976;20.182;2023-02-13T07:16:48;3.18;96.45
75022;SHT31;63583;49.976;20.182;2023-02-13T07:19:13;3.24;96.45
75022;SHT31;63583;49.976;20.182;2023-02-13T07:21:39;3.23;96.36
75022;SHT31;63583;49.976;20.182;2023-02-13T07:24:05;3.25;96.07
75022;SHT31;63583;49.976;20.182;2023-02-13T07:26:31;3.28;96.32
75022;SHT31;63583;49.976;20.182;2023-02-13T07:28:56;3.28;95.95
75022;SHT31;63583;49.976;20.182;2023-02-13T07:31:22;3.34;96.01
75022;SHT31;63583;49.976;20.182;2023-02-13T07:33:48;3.34;95.99
75022;SHT31;63583;49.976;20.182;2023-02-13T07:36:14;3.35;96.28
75022;SHT31;63583;49.976;20.182;2023-02-13T07:38:40;3.51;95.86
75022;SHT31;63583;49.976;20.182;2023-02-13T07:41:05;3.50;95.88
75022;SHT31;63583;49.976;20.182;2023-02-13T07:43:31;3.51;95.67
75022;SHT31;63583;49.976;20.182;2023-02-13T07:46:00;3.46;95.83
75022;SHT31;63583;49.976;20.182;2023-02-13T07:48:27;3.46;95.93
75022;SHT31;63583;49.976;20.182;2023-02-13T07:50:53;3.46;95.70
75022;SHT31;63583;49.976;20.182;2023-02-13T07:53:20;3.52;95.87
75022;SHT31;63583;49.976;20.182;2023-02-13T07:55:47;3.55;95.91
75022;SHT31;63583;49.976;20.182;2023-02-13T07:58:12;3.59;95.76
75022;SHT31;63583;49.976;20.182;2023-02-13T08:00:38;3.72;95.65
75022;SHT31;63583;49.976;20.182;2023-02-13T08:03:04;3.69;95.39
75022;SHT31;63583;49.976;20.182;2023-02-13T08:05:31;3.65;95.29
75022;SHT31;63583;49.976;20.182;2023-02-13T08:07:57;3.76;95.55
75022;SHT31;63583;49.976;20.182;2023-02-13T08:10:23;3.75;95.08
75022;SHT31;63583;49.976;20.182;2023-02-13T08:13:08;3.73;95.34
75022;SHT31;63583;49.976;20.182;2023-02-13T08:15:35;3.86;94.84
75022;SHT31;63583;49.976;20.182;2023-02-13T08:18:00;3.92;95.04
75022;SHT31;63583;49.976;20.182;2023-02-13T08:20:26;3.86;95.06
75022;SHT31;63583;49.976;20.182;2023-02-13T08:22:52;4.03;94.11
75022;SHT31;63583;49.976;20.182;2023-02-13T08:25:17;4.21;93.88
75022;SHT31;63583;49.976;20.182;2023-02-13T08:27:45;4.20;93.63
75022;SHT31;63583;49.976;20.182;2023-02-13T08:30:11;4.27;92.88
75022;SHT31;63583;49.976;20.182;2023-02-13T08:32:37;4.28;93.22
75022;SHT31;63583;49.976;20.182;2023-02-13T08:35:03;4.37;92.76
75022;SHT31;63583;49.976;20.182;2023-02-13T08:37:29;4.34;92.57
75022;SHT31;63583;49.976;20.182;2023-02-13T08:39:54;4.37;92.75
75022;SHT31;63583;49.976;20.182;2023-02-13T08:42:20;4.41;92.13
75022;SHT31;63583;49.976;20.182;2023-02-13T08:44:46;4.28;92.40
75022;SHT31;63583;49.976;20.182;2023-02-13T08:47:11;4.30;92.37
75022;SHT31;63583;49.976;20.182;2023-02-13T08:49:37;4.27;92.06
75022;SHT31;63583;49.976;20.182;2023-02-13T08:52:03;4.33;91.78
75022;SHT31;63583;49.976;20.182;2023-02-13T08:54:30;4.34;91.93
75022;SHT31;63583;49.976;20.182;2023-02-13T08:56:55;4.41;92.10
75022;SHT31;63583;49.976;20.182;2023-02-13T08:59:21;4.48;91.39
75022;SHT31;63583;49.976;20.182;2023-02-13T09:01:47;4.57;91.46
75022;SHT31;63583;49.976;20.182;2023-02-13T09:04:12;4.69;91.47
75022;SHT31;63583;49.976;20.182;2023-02-13T09:06:41;4.85;90.87
75022;SHT31;63583;49.976;20.182;2023-02-13T09:09:07;5.03;90.33
75022;SHT31;63583;49.976;20.182;2023-02-13T09:11:33;5.17;89.46
75022;SHT31;63583;49.976;20.182;2023-02-13T09:13:58;5.26;89.24
75022;SHT31;63583;49.976;20.182;2023-02-13T09:16:24;5.22;89.01
75022;SHT31;63583;49.976;20.182;2023-02-13T09:18:50;5.30;87.87
75022;SHT31;63583;49.976;20.182;2023-02-13T09:21:19;5.14;88.27
75022;SHT31;63583;49.976;20.182;2023-02-13T09:23:45;5.23;88.40
75022;SHT31;63583;49.976;20.182;2023-02-13T09:26:13;5.20;88.44
75022;SHT31;63583;49.976;20.182;2023-02-13T09:28:39;5.23;88.30
75022;SHT31;63583;49.976;20.182;2023-02-13T09:31:10;5.34;88.24
75022;SHT31;63583;49.976;20.182;2023-02-13T09:33:37;5.45;88.37
75022;SHT31;63583;49.976;20.182;2023-02-13T09:36:07;5.43;87.74
75022;SHT31;63583;49.976;20.182;2023-02-13T09:38:34;5.56;87.33
75022;SHT31;63583;49.976;20.182;2023-02-13T09:41:04;5.64;87.60
75022;SHT31;63583;49.976;20.182;2023-02-13T09:43:40;5.66;87.05
75022;SHT31;63583;49.976;20.182;2023-02-13T09:46:13;5.64;86.34
75022;SHT31;63583;49.976;20.182;2023-02-13T09:48:42;5.76;85.60
75022;SHT31;63583;49.976;20.182;2023-02-13T09:51:15;5.75;86.40
75022;SHT31;63583;49.976;20.182;2023-02-13T09:53:54;5.82;85.49
75022;SHT31;63583;49.976;20.182;2023-02-13T09:56:32;5.82;86.36
75022;SHT31;63583;49.976;20.182;2023-02-13T10:01:51;5.95;85.40
75022;SHT31;63583;49.976;20.182;2023-02-13T10:04:35;5.96;85.24
75022;SHT31;63583;49.976;20.182;2023-02-13T10:07:22;6.09;85.06
75022;SHT31;63583;49.976;20.182;2023-02-13T10:10:01;6.19;84.31
75022;SHT31;63583;49.976;20.182;2023-02-13T10:12:49;6.30;84.50
75022;SHT31;63583;49.976;20.182;2023-02-13T10:15:30;6.37;83.49
75022;SHT31;63583;49.976;20.182;2023-02-13T10:18:01;6.40;82.80
75022;SHT31;63583;49.976;20.182;2023-02-13T10:20:33;6.40;82.62
75022;SHT31;63583;49.976;20.182;2023-02-13T10:23:26;6.48;81.90
75022;SHT31;63583;49.976;20.182;2023-02-13T10:25:56;6.55;82.58
75022;SHT31;63583;49.976;20.182;2023-02-13T10:28:43;6.72;81.75
75022;SHT31;63583;49.976;20.182;2023-02-13T10:31:12;6.71;81.49
75022;SHT31;63583;49.976;20.182;2023-02-13T10:33:48;6.47;81.05
75022;SHT31;63583;49.976;20.182;2023-02-13T10:36:18;6.54;81.07
75022;SHT31;63583;49.976;20.182;2023-02-13T10:42:10;6.37;81.72
75022;SHT31;63583;49.976;20.182;2023-02-13T10:53:23;6.02;81.91
75022;SHT31;63583;49.976;20.182;2023-02-13T11:02:30;6.44;81.22
75022;SHT31;63583;49.976;20.182;2023-02-13T11:04:36;6.34;79.73
75022;SHT31;63583;49.976;20.182;2023-02-13T11:07:03;6.44;80.47
75022;SHT31;63583;49.976;20.182;2023-02-13T11:09:39;6.51;80.28
75022;SHT31;63583;49.976;20.182;2023-02-13T11:12:28;6.54;80.28
75022;SHT31;63583;49.976;20.182;2023-02-13T11:15:03;6.58;78.70
75022;SHT31;63583;49.976;20.182;2023-02-13T11:17:32;6.60;79.41
75022;SHT31;63583;49.976;20.182;2023-02-13T11:20:03;6.45;80.81
75022;SHT31;63583;49.976;20.182;2023-02-13T11:22:38;6.58;80.23
75022;SHT31;63583;49.976;20.182;2023-02-13T11:25:27;6.29;82.37
75022;SHT31;63583;49.976;20.182;2023-02-13T11:28:17;6.19;83.51
75022;SHT31;63583;49.976;20.182;2023-02-13T11:30:44;6.26;84.26
75022;SHT31;63583;49.976;20.182;2023-02-13T11:35:46;6.16;83.46
75022;SHT31;63583;49.976;20.182;2023-02-13T11:38:19;6.16;83.67
75022;SHT31;63583;49.976;20.182;2023-02-13T11:40:50;6.16;84.45
75022;SHT31;63583;49.976;20.182;2023-02-13T11:45:44;6.26;83.87
75022;SHT31;63583;49.976;20.182;2023-02-13T11:48:20;6.33;83.67
75022;SHT31;63583;49.976;20.182;2023-02-13T11:50:51;6.34;82.31
75022;SHT31;63583;49.976;20.182;2023-02-13T11:53:26;6.34;82.64
75022;SHT31;63583;49.976;20.182;2023-02-13T11:56:13;6.22;82.93
75022;SHT31;63583;49.976;20.182;2023-02-13T11:58:39;6.40;82.23
75022;SHT31;63583;49.976;20.182;2023-02-13T12:03:56;6.20;81.59
75022;SHT31;63583;49.976;20.182;2023-02-13T12:06:22;6.14;82.95
75022;SHT31;63583;49.976;20.182;2023-02-13T12:08:49;5.99;83.28
75022;SHT31;63583;49.976;20.182;2023-02-13T12:14:01;5.89;84.41
75022;SHT31;63583;49.976;20.182;2023-02-13T12:17:06;6.09;83.70
75022;SHT31;63583;49.976;20.182;2023-02-13T12:19:40;6.03;84.18
75022;SHT31;63583;49.976;20.182;2023-02-13T12:22:29;6.06;83.99
75022;SHT31;63583;49.976;20.182;2023-02-13T12:25:18;5.99;84.96
75022;SHT31;63583;49.976;20.182;2023-02-13T12:28:06;6.10;85.17
75022;SHT31;63583;49.976;20.182;2023-02-13T12:41:17;5.76;85.49
75022;SHT31;63583;49.976;20.182;2023-02-13T12:44:05;5.76;85.58
75022;SHT31;63583;49.976;20.182;2023-02-13T13:01:07;5.74;86.35
75022;SHT31;63583;49.976;20.182;2023-02-13T13:03:53;5.96;85.35
75022;SHT31;63583;49.976;20.182;2023-02-13T13:14:42;5.88;84.88
75022;SHT31;63583;49.976;20.182;2023-02-13T13:17:28;5.78;85.33
75022;SHT31;63583;49.976;20.182;2023-02-13T13:22:38;5.78;85.50
75022;SHT31;63583;49.976;20.182;2023-02-13T13:27:38;5.79;85.03
75022;SHT31;63583;49.976;20.182;2023-02-13T13:30:37;5.83;85.55
75022;SHT31;63583;49.976;20.182;2023-02-13T13:35:38;5.88;86.09
75022;SHT31;63583;49.976;20.182;2023-02-13T13:38:20;5.86;86.21
75022;SHT31;63583;49.976;20.182;2023-02-13T13:40:56;5.91;86.21
75022;SHT31;63583;49.976;20.182;2023-02-13T13:43:39;5.89;86.16
75022;SHT31;63583;49.976;20.182;2023-02-13T13:46:18;5.98;86.23
75022;SHT31;63583;49.976;20.182;2023-02-13T13:49:04;6.02;85.47
75022;SHT31;63583;49.976;20.182;2023-02-13T13:51:30;5.89;85.76
75022;SHT31;63583;49.976;20.182;2023-02-13T13:56:26;5.78;86.57
75022;SHT31;63583;49.976;20.182;2023-02-13T13:59:16;5.65;87.78
75022;SHT31;63583;49.976;20.182;2023-02-13T14:01:43;5.78;87.25
75022;SHT31;63583;49.976;20.182;2023-02-13T14:04:38;5.69;87.55
75022;SHT31;63583;49.976;20.182;2023-02-13T14:07:15;5.66;87.80
75022;SHT31;63583;49.976;20.182;2023-02-13T14:09:42;5.68;87.74
75022;SHT31;63583;49.976;20.182;2023-02-13T14:14:50;5.65;87.67
75022;SHT31;63583;49.976;20.182;2023-02-13T14:28:42;5.44;89.13
75022;SHT31;63583;49.976;20.182;2023-02-13T14:32:13;5.40;89.88
75022;SHT31;63583;49.976;20.182;2023-02-13T14:34:18;5.55;89.18
75022;SHT31;63583;49.976;20.182;2023-02-13T14:36:47;5.48;89.30
75022;SHT31;63583;49.976;20.182;2023-02-13T14:39:27;5.56;88.33
75022;SHT31;63583;49.976;20.182;2023-02-13T14:44:31;5.40;89.75
75022;SHT31;63583;49.976;20.182;2023-02-13T14:47:02;5.35;89.72
75022;SHT31;63583;49.976;20.182;2023-02-13T14:49:33;5.43;89.25
75022;SHT31;63583;49.976;20.182;2023-02-13T14:54:44;5.41;89.43
75022;SHT31;63583;49.976;20.182;2023-02-13T14:57:18;5.31;90.06
75022;SHT31;63583;49.976;20.182;2023-02-13T14:59:55;5.31;90.13
75022;SHT31;63583;49.976;20.182;2023-02-13T15:02:27;5.38;90.01
75022;SHT31;63583;49.976;20.182;2023-02-13T15:05:01;5.33;90.65
75022;SHT31;63583;49.976;20.182;2023-02-13T15:07:36;5.33;90.23
75022;SHT31;63583;49.976;20.182;2023-02-13T15:10:32;5.24;91.20
75022;SHT31;63583;49.976;20.182;2023-02-13T15:13:01;5.26;90.79
75022;SHT31;63583;49.976;20.182;2023-02-13T15:15:30;5.27;90.65
75022;SHT31;63583;49.976;20.182;2023-02-13T15:17:58;5.44;90.10
75022;SHT31;63583;49.976;20.182;2023-02-13T15:20:32;5.38;90.02
75022;SHT31;63583;49.976;20.182;2023-02-13T15:22:58;5.31;90.26
75022;SHT31;63583;49.976;20.182;2023-02-13T15:25:33;5.35;89.85
75022;SHT31;63583;49.976;20.182;2023-02-13T15:28:02;5.35;90.19
75022;SHT31;63583;49.976;20.182;2023-02-13T15:30:38;5.30;90.38
75022;SHT31;63583;49.976;20.182;2023-02-13T15:33:17;5.34;90.23
75022;SHT31;63583;49.976;20.182;2023-02-13T15:35:43;5.28;90.10
75022;SHT31;63583;49.976;20.182;2023-02-13T15:38:19;5.26;90.30
75022;SHT31;63583;49.976;20.182;2023-02-13T15:40:49;5.28;90.39
75022;SHT31;63583;49.976;20.182;2023-02-13T15:43:43;5.20;90.86
75022;SHT31;63583;49.976;20.182;2023-02-13T15:46:27;5.24;90.11
75022;SHT31;63583;49.976;20.182;2023-02-13T15:48:57;5.33;89.80
75022;SHT31;63583;49.976;20.182;2023-02-13T15:51:25;5.17;90.88
75022;SHT31;63583;49.976;20.182;2023-02-13T15:54:03;5.24;90.82
75022;SHT31;63583;49.976;20.182;2023-02-13T15:56:30;5.13;91.83
75022;SHT31;63583;49.976;20.182;2023-02-13T15:58:58;5.20;92.32
75022;SHT31;63583;49.976;20.182;2023-02-13T16:01:24;5.19;92.22
75022;SHT31;63583;49.976;20.182;2023-02-13T16:03:59;5.05;93.44
75022;SHT31;63583;49.976;20.182;2023-02-13T16:06:25;4.97;94.11
75022;SHT31;63583;49.976;20.182;2023-02-13T16:08:53;4.85;94.78
75022;SHT31;63583;49.976;20.182;2023-02-13T16:11:27;4.78;94.38
75022;SHT31;63583;49.976;20.182;2023-02-13T16:19:44;4.49;94.93
75022;SHT31;63583;49.976;20.182;2023-02-13T16:22:24;4.49;94.88
75022;SHT31;63583;49.976;20.182;2023-02-13T16:24:52;4.44;94.66
75022;SHT31;63583;49.976;20.182;2023-02-13T16:27:23;4.48;94.77
75022;SHT31;63583;49.976;20.182;2023-02-13T16:29:59;4.38;94.90
75022;SHT31;63583;49.976;20.182;2023-02-13T16:32:32;4.44;94.72
75022;SHT31;63583;49.976;20.182;2023-02-13T16:35:17;4.52;94.54
75022;SHT31;63583;49.976;20.182;2023-02-13T16:37:51;4.44;94.36
75022;SHT31;63583;49.976;20.182;2023-02-13T16:40:42;4.49;94.51
75022;SHT31;63583;49.976;20.182;2023-02-13T16:48:41;4.42;93.59
75022;SHT31;63583;49.976;20.182;2023-02-13T16:51:08;4.40;93.26
75022;SHT31;63583;49.976;20.182;2023-02-13T16:53:35;4.40;92.78
75022;SHT31;63583;49.976;20.182;2023-02-13T16:56:05;4.37;92.88
75022;SHT31;63583;49.976;20.182;2023-02-13T16:58:32;4.30;92.77
75022;SHT31;63583;49.976;20.182;2023-02-13T17:00:58;4.30;92.98
75022;SHT31;63583;49.976;20.182;2023-02-13T17:03:26;4.28;92.85
75022;SHT31;63583;49.976;20.182;2023-02-13T17:05:52;4.33;92.93
75022;SHT31;63583;49.976;20.182;2023-02-13T17:08:20;4.33;93.17
75022;SHT31;63583;49.976;20.182;2023-02-13T17:11:06;4.18;93.15
75022;SHT31;63583;49.976;20.182;2023-02-13T17:13:33;4.11;93.78
75022;SHT31;63583;49.976;20.182;2023-02-13T17:15:59;4.17;92.95
75022;SHT31;63583;49.976;20.182;2023-02-13T17:18:25;4.16;92.85
75022;SHT31;63583;49.976;20.182;2023-02-13T17:20:52;4.20;92.76
75022;SHT31;63583;49.976;20.182;2023-02-13T17:23:24;4.16;92.52
75022;SHT31;63583;49.976;20.182;2023-02-13T17:25:51;4.09;92.67
75022;SHT31;63583;49.976;20.182;2023-02-13T17:28:23;4.01;93.13
75022;SHT31;63583;49.976;20.182;2023-02-13T17:30:51;4.09;92.48
75022;SHT31;63583;49.976;20.182;2023-02-13T17:33:27;4.00;92.52
75022;SHT31;63583;49.976;20.182;2023-02-13T17:35:53;3.83;93.31
75022;SHT31;63583;49.976;20.182;2023-02-13T17:38:19;4.00;92.23
75022;SHT31;63583;49.976;20.182;2023-02-13T17:40:45;4.00;92.10
75022;SHT31;63583;49.976;20.182;2023-02-13T17:43:14;3.96;91.96
75022;SHT31;63583;49.976;20.182;2023-02-13T17:45:40;3.86;92.39
75022;SHT31;63583;49.976;20.182;2023-02-13T17:48:06;3.89;91.87
75022;SHT31;63583;49.976;20.182;2023-02-13T17:50:33;3.80;92.05
75022;SHT31;63583;49.976;20.182;2023-02-13T17:53:04;3.85;91.75
75022;SHT31;63583;49.976;20.182;2023-02-13T17:55:32;3.86;91.66
75022;SHT31;63583;49.976;20.182;2023-02-13T17:57:59;3.80;91.29
75022;SHT31;63583;49.976;20.182;2023-02-13T18:00:29;3.82;91.59
75022;SHT31;63583;49.976;20.182;2023-02-13T18:02:56;3.86;91.38
75022;SHT31;63583;49.976;20.182;2023-02-13T18:05:23;3.78;91.52
75022;SHT31;63583;49.976;20.182;2023-02-13T18:07:49;3.85;91.20
75022;SHT31;63583;49.976;20.182;2023-02-13T18:10:27;3.86;91.02
75022;SHT31;63583;49.976;20.182;2023-02-13T18:12:54;3.86;91.40